createdAt,value
2022-10-18T00:02:28.367Z,99856.72
2022-10-18T00:04:57.016Z,99850.75
2022-10-18T00:07:25.690Z,99858.22
2022-10-18T00:09:54.272Z,99863.59
2022-10-18T00:12:22.914Z,99861.97
2022-10-18T00:14:52.349Z,99865.72
2022-10-18T00:17:22.350Z,99869.69
2022-10-18T00:19:51.172Z,99865.34
2022-10-18T00:22:19.871Z,99862.91
2022-10-18T00:24:48.476Z,99860.44
2022-10-18T00:27:17.101Z,99862.91
2022-10-18T00:29:45.875Z,99865.16
2022-10-18T00:32:14.704Z,99859.97
2022-10-18T00:34:44.704Z,99868.28
2022-10-18T00:37:13.388Z,99866.66
2022-10-18T00:39:42.327Z,99865.00
2022-10-18T00:42:17.218Z,99864.31
2022-10-18T00:45:21.165Z,99858.94
2022-10-18T00:47:56.607Z,99859.84
2022-10-18T00:50:29.251Z,99853.28
2022-10-18T00:53:01.365Z,99856.31
2022-10-18T00:55:33.416Z,99861.94
2022-10-18T00:58:03.588Z,99856.91
2022-10-18T01:00:32.826Z,99857.75
2022-10-18T01:03:01.549Z,99860.44
2022-10-18T01:05:31.963Z,99861.94
2022-10-18T01:08:23.873Z,99866.25
2022-10-18T01:11:09.909Z,99851.53
2022-10-18T01:14:01.742Z,99856.91
2022-10-18T01:16:42.280Z,99859.84
2022-10-18T01:20:03.898Z,99853.88
2022-10-18T01:22:40.780Z,99858.66
2022-10-18T01:25:31.518Z,99855.41
2022-10-18T01:28:14.630Z,99866.38
2022-10-18T01:30:53.178Z,99864.75
2022-10-18T01:33:34.492Z,99855.47
2022-10-18T01:36:11.039Z,99856.78
2022-10-18T01:38:44.167Z,99864.69
2022-10-18T01:41:15.950Z,99863.66
2022-10-18T01:43:47.702Z,99872.16
2022-10-18T01:46:23.673Z,99869.84
2022-10-18T01:48:54.397Z,99867.53
2022-10-18T01:51:27.747Z,99871.03
2022-10-18T01:53:57.187Z,99859.69
2022-10-18T01:56:37.919Z,99864.69
2022-10-18T01:59:34.820Z,99869.72
2022-10-18T02:02:18.380Z,99872.53
2022-10-18T02:04:56.226Z,99872.41
2022-10-18T02:07:33.743Z,99865.97
2022-10-18T02:10:11.889Z,99871.22
2022-10-18T02:12:45.623Z,99861.84
2022-10-18T02:15:19.214Z,99868.03
2022-10-18T02:17:49.218Z,99871.44
2022-10-18T02:20:24.074Z,99870.84
2022-10-18T02:22:56.774Z,99869.19
2022-10-18T02:25:30.029Z,99865.34
2022-10-18T02:27:59.641Z,99871.31
2022-10-18T02:30:42.355Z,99870.63
2022-10-18T02:33:19.220Z,99869.81
2022-10-18T02:35:55.930Z,99879.72
2022-10-18T02:38:28.225Z,99876.81
2022-10-18T02:40:57.362Z,99873.09
2022-10-18T02:43:26.086Z,99877.75
2022-10-18T02:45:55.476Z,99872.81
2022-10-18T02:48:25.718Z,99869.88
2022-10-18T02:50:54.385Z,99876.78
2022-10-18T02:53:22.977Z,99883.22
2022-10-18T02:55:51.582Z,99879.69
2022-10-18T02:58:20.156Z,99881.94
2022-10-18T03:00:51.852Z,99880.72
2022-10-18T03:03:20.462Z,99881.78
2022-10-18T03:05:52.672Z,99881.34
2022-10-18T03:08:22.840Z,99888.22
2022-10-18T03:10:51.522Z,99879.09
2022-10-18T03:13:20.545Z,99889.28
2022-10-18T03:15:49.834Z,99889.03
2022-10-18T03:18:18.520Z,99882.47
2022-10-18T03:20:47.107Z,99883.91
2022-10-18T03:23:17.075Z,99881.22
2022-10-18T03:25:46.603Z,99886.59
2022-10-18T03:28:15.272Z,99885.84
2022-10-18T03:30:43.987Z,99894.13
2022-10-18T03:33:12.610Z,99893.69
2022-10-18T03:35:41.312Z,99884.34
2022-10-18T03:38:09.968Z,99882.25
2022-10-18T03:40:39.980Z,99887.41
2022-10-18T03:43:08.641Z,99879.56
2022-10-18T03:45:37.345Z,99884.13
2022-10-18T03:48:06.786Z,99885.97
2022-10-18T03:50:35.572Z,99892.50
2022-10-18T03:53:04.230Z,99883.59
2022-10-18T03:55:32.884Z,99882.34
2022-10-18T03:58:02.873Z,99873.81
2022-10-18T04:00:38.460Z,99868.69
2022-10-18T04:03:07.406Z,99861.03
2022-10-18T04:05:36.919Z,99871.81
2022-10-18T04:08:06.595Z,99877.19
2022-10-18T04:10:35.382Z,99874.50
2022-10-18T04:13:05.814Z,99882.13
2022-10-18T04:15:35.053Z,99874.63
2022-10-18T04:18:03.777Z,99879.91
2022-10-18T04:20:32.558Z,99881.13
2022-10-18T04:23:01.144Z,99883.13
2022-10-18T04:25:30.205Z,99884.53
2022-10-18T04:27:58.827Z,99879.97
2022-10-18T04:30:28.883Z,99880.09
2022-10-18T04:32:57.538Z,99878.81
2022-10-18T04:35:27.847Z,99879.66
2022-10-18T04:37:56.844Z,99884.56
2022-10-18T04:40:25.785Z,99883.28
2022-10-18T04:42:54.996Z,99892.81
2022-10-18T04:45:23.739Z,99895.00
2022-10-18T04:47:54.491Z,99881.56
2022-10-18T04:50:23.488Z,99884.25
2022-10-18T04:52:54.193Z,99886.50
2022-10-18T04:55:22.863Z,99886.25
2022-10-18T04:57:51.481Z,99869.88
2022-10-18T05:00:22.974Z,99862.41
2022-10-18T05:02:56.892Z,99858.44
2022-10-18T05:05:43.202Z,99863.00
2022-10-18T05:08:15.329Z,99857.16
2022-10-18T05:10:43.987Z,99852.81
2022-10-18T05:13:12.591Z,99855.28
2022-10-18T05:15:41.296Z,99856.09
2022-10-18T05:18:11.400Z,99856.44
2022-10-18T05:20:40.334Z,99856.44
2022-10-18T05:23:10.786Z,99856.81
2022-10-18T05:25:40.434Z,99859.25
2022-10-18T05:28:27.171Z,99855.31
2022-10-18T05:31:03.659Z,99853.19
2022-10-18T05:33:34.879Z,99852.13
2022-10-18T05:36:04.114Z,99846.75
2022-10-18T05:38:32.876Z,99850.03
2022-10-18T05:41:05.475Z,99849.81
2022-10-18T05:43:34.258Z,99841.50
2022-10-18T05:46:02.882Z,99828.03
2022-10-18T05:48:33.127Z,99822.16
2022-10-18T05:51:02.523Z,99804.38
2022-10-18T05:53:36.699Z,99795.25
2022-10-18T05:56:07.750Z,99791.75
2022-10-18T05:58:36.663Z,99791.97
2022-10-18T06:01:07.461Z,99793.38
2022-10-18T06:03:37.612Z,99793.16
2022-10-18T06:06:10.206Z,99804.50
2022-10-18T06:08:40.913Z,99805.06
2022-10-18T06:11:11.565Z,99808.84
2022-10-18T06:13:43.655Z,99801.94
2022-10-18T06:16:13.990Z,99809.75
2022-10-18T06:18:44.469Z,99804.13
2022-10-18T06:21:13.115Z,99795.84
2022-10-18T06:23:42.167Z,99795.38
2022-10-18T06:26:13.172Z,99798.06
2022-10-18T06:28:41.927Z,99806.50
2022-10-18T06:31:12.314Z,99809.75
2022-10-18T06:33:41.278Z,99817.59
2022-10-18T06:36:15.014Z,99829.53
2022-10-18T06:38:43.970Z,99830.34
2022-10-18T06:41:13.009Z,99834.47
2022-10-18T06:43:41.715Z,99824.84
2022-10-18T06:46:10.815Z,99823.56
2022-10-18T06:48:40.998Z,99817.44
2022-10-18T06:51:12.620Z,99820.25
2022-10-18T06:53:44.517Z,99824.94
2022-10-18T06:56:18.630Z,99824.44
2022-10-18T06:58:47.569Z,99824.00
2022-10-18T07:01:18.374Z,99821.88
2022-10-18T07:03:48.892Z,99818.13
2022-10-18T07:06:20.796Z,99818.72
2022-10-18T07:08:52.855Z,99820.09
2022-10-18T07:11:25.313Z,99824.22
2022-10-18T07:13:55.279Z,99830.16
2022-10-18T07:16:24.062Z,99827.47
2022-10-18T07:18:53.550Z,99817.50
2022-10-18T07:21:26.887Z,99822.44
2022-10-18T07:23:55.974Z,99826.06
2022-10-18T07:26:27.380Z,99820.19
2022-10-18T07:29:00.455Z,99828.41
2022-10-18T07:31:30.786Z,99816.91
2022-10-18T07:33:59.724Z,99818.63
2022-10-18T07:36:29.770Z,99818.94
2022-10-18T07:44:01.591Z,99825.22
2022-10-18T07:46:28.904Z,99818.75
2022-10-18T07:48:57.730Z,99816.41
2022-10-18T07:51:26.079Z,99809.69
2022-10-18T07:53:53.707Z,99811.31
2022-10-18T07:56:22.260Z,99813.00
2022-10-18T07:58:51.796Z,99807.34
2022-10-18T08:06:24.050Z,99813.06
2022-10-18T08:08:52.434Z,99824.66
2022-10-18T08:11:23.421Z,99813.66
2022-10-18T08:13:53.042Z,99805.06
2022-10-18T08:16:25.826Z,99789.22
2022-10-18T08:18:54.722Z,99783.09
2022-10-18T08:21:24.956Z,99784.81
2022-10-18T08:23:54.323Z,99788.63
2022-10-18T08:26:24.674Z,99770.06
2022-10-18T08:29:10.432Z,99759.38
2022-10-18T08:31:41.998Z,99758.13
2022-10-18T08:34:10.672Z,99750.66
2022-10-18T08:36:40.779Z,99755.59
2022-10-18T08:39:09.610Z,99753.44
2022-10-18T08:41:57.449Z,99749.69
2022-10-18T08:44:29.453Z,99745.34
2022-10-18T08:47:05.644Z,99753.44
2022-10-18T08:49:46.274Z,99754.00
2022-10-18T08:52:29.899Z,99759.84
2022-10-18T08:55:05.243Z,99748.53
2022-10-18T08:57:34.546Z,99744.78
2022-10-18T09:00:15.985Z,99741.00
2022-10-18T09:03:05.710Z,99740.75
2022-10-18T09:05:49.714Z,99725.94
2022-10-18T09:09:08.584Z,99725.44
2022-10-18T09:12:01.076Z,99724.94
2022-10-18T09:15:14.860Z,99722.34
2022-10-18T09:18:07.301Z,99721.84
2022-10-18T09:20:54.684Z,99713.81
2022-10-18T09:23:44.182Z,99707.09
2022-10-18T09:26:20.050Z,99716.59
2022-10-18T09:29:09.876Z,99710.94
2022-10-18T09:31:50.513Z,99716.09
2022-10-18T09:34:33.135Z,99705.28
2022-10-18T09:37:04.282Z,99706.91
2022-10-18T09:42:47.838Z,99698.31
2022-10-18T09:45:27.786Z,99688.88
2022-10-18T09:48:08.952Z,99692.97
2022-10-18T09:50:43.589Z,99691.97
2022-10-18T09:53:28.099Z,99687.41
2022-10-18T09:56:05.000Z,99676.66
2022-10-18T09:58:45.574Z,99680.25
2022-10-18T10:01:20.927Z,99678.41
2022-10-18T10:03:49.631Z,99678.53
2022-10-18T10:06:26.459Z,99688.88
2022-10-18T10:09:08.305Z,99671.94
2022-10-18T10:11:41.361Z,99670.44
2022-10-18T10:14:25.928Z,99674.38
2022-10-18T10:16:58.295Z,99683.09
2022-10-18T10:19:32.899Z,99661.47
2022-10-18T10:22:08.571Z,99664.50
2022-10-18T10:24:49.873Z,99663.41
2022-10-18T10:27:25.969Z,99666.94
2022-10-18T10:30:02.774Z,99659.91
2022-10-18T10:32:48.863Z,99663.38
2022-10-18T10:35:52.618Z,99673.38
2022-10-18T10:38:32.283Z,99764.47
2022-10-18T10:41:01.323Z,99742.66
2022-10-18T10:43:38.745Z,99766.38
2022-10-18T10:46:13.264Z,99793.19
2022-10-18T10:48:52.164Z,99796.53
2022-10-18T10:51:32.750Z,99796.97
2022-10-18T10:54:05.293Z,99805.25
2022-10-18T10:56:52.498Z,99812.47
2022-10-18T10:59:26.277Z,99798.00
2022-10-18T11:02:22.272Z,99795.50
2022-10-18T11:04:53.680Z,99790.56
2022-10-18T11:07:31.288Z,99787.31
2022-10-18T11:10:07.246Z,99791.41
2022-10-18T11:12:39.860Z,99792.31
2022-10-18T11:15:22.756Z,99789.13
2022-10-18T11:18:17.109Z,99796.22
2022-10-18T11:20:54.379Z,99799.75
2022-10-18T11:23:32.436Z,99807.59
2022-10-18T11:26:28.651Z,99811.63
2022-10-18T11:32:59.316Z,99800.88
2022-10-18T11:35:47.137Z,99811.69
2022-10-18T11:38:32.875Z,99807.66
2022-10-18T11:41:31.443Z,99814.94
2022-10-18T11:44:04.288Z,99816.84
2022-10-18T11:47:02.426Z,99818.25
2022-10-18T11:49:55.007Z,99811.19
2022-10-18T11:52:37.632Z,99826.91
2022-10-18T11:55:31.943Z,99815.28
2022-10-18T11:58:19.553Z,99823.13
2022-10-18T12:00:56.088Z,99829.34
2022-10-18T12:03:38.637Z,99812.31
2022-10-18T12:06:15.611Z,99823.13
2022-10-18T12:08:51.191Z,99827.72
2022-10-18T12:11:24.896Z,99826.91
2022-10-18T12:13:59.065Z,99828.47
2022-10-18T12:16:50.406Z,99833.31
2022-10-18T12:19:26.843Z,99831.66
2022-10-18T12:22:03.940Z,99831.66
2022-10-18T12:24:36.973Z,99832.50
2022-10-18T12:27:06.657Z,99838.69
2022-10-18T12:29:50.400Z,99845.72
2022-10-18T12:37:53.188Z,99816.59
2022-10-18T12:40:30.277Z,99816.59
2022-10-18T12:42:58.660Z,99818.09
2022-10-18T12:45:32.388Z,99824.63
2022-10-18T12:48:01.849Z,99828.38
2022-10-18T12:50:35.044Z,99833.56
2022-10-18T15:00:50.609Z,99856.00
2022-10-18T15:03:20.484Z,99869.28
2022-10-18T15:05:59.557Z,99870.09
2022-10-18T15:08:35.965Z,99870.34
2022-10-18T15:11:09.373Z,99869.53
2022-10-18T15:13:50.332Z,99866.00
2022-10-18T15:16:25.025Z,99860.59
2022-10-18T15:19:09.185Z,99852.50
2022-10-18T15:21:38.008Z,99860.59
2022-10-18T15:24:31.732Z,99866.50
2022-10-18T15:27:13.613Z,99865.38
2022-10-18T15:29:43.932Z,99867.50
2022-10-18T15:32:29.249Z,99861.78
2022-10-18T15:35:13.572Z,99863.91
2022-10-18T15:37:46.236Z,99874.13
2022-10-18T15:40:38.067Z,99879.78
2022-10-18T15:43:35.854Z,99879.78
2022-10-18T15:46:07.623Z,99876.53
2022-10-18T15:48:40.001Z,99879.47
2022-10-18T15:51:21.539Z,99889.69
2022-10-18T15:53:55.827Z,99879.66
2022-10-18T15:56:34.926Z,99891.50
2022-10-18T15:59:06.455Z,99900.66
2022-10-18T16:01:39.942Z,99892.25
2022-10-18T16:04:19.665Z,99893.53
2022-10-18T16:06:48.645Z,99899.31
2022-10-18T16:09:20.836Z,99900.88
2022-10-18T16:11:56.357Z,99899.97
2022-10-18T16:14:27.805Z,99902.81
2022-10-18T16:17:01.673Z,99907.31
2022-10-18T16:19:31.402Z,99911.63
2022-10-18T16:22:06.607Z,99909.19
2022-10-18T16:24:36.001Z,99918.34
2022-10-18T16:27:05.281Z,99923.66
2022-10-18T16:29:34.886Z,99918.00
2022-10-18T16:32:05.376Z,99917.69
2022-10-18T16:34:40.512Z,99923.56
2022-10-18T16:37:09.096Z,99917.69
2022-10-18T16:39:39.053Z,99922.03
2022-10-18T16:42:09.116Z,99928.50
2022-10-18T16:44:38.551Z,99923.56
2022-10-18T16:47:11.196Z,99930.75
2022-10-18T16:49:40.773Z,99934.25
2022-10-18T16:52:10.137Z,99929.47
2022-10-18T16:54:45.248Z,99931.91
2022-10-18T16:57:14.135Z,99931.66
2022-10-18T16:59:43.406Z,99924.06
2022-10-18T17:02:15.222Z,99927.00
2022-10-18T17:04:46.817Z,99935.31
2022-10-18T17:07:25.719Z,99927.81
2022-10-18T17:09:55.683Z,99919.47
2022-10-18T17:12:25.071Z,99923.47
2022-10-18T17:14:54.354Z,99925.13
2022-10-18T17:17:25.281Z,99930.75
2022-10-18T17:19:54.081Z,99935.56
2022-10-18T17:22:23.229Z,99934.75
2022-10-18T17:24:52.887Z,99939.59
2022-10-18T17:27:22.390Z,99940.03
2022-10-18T17:29:51.368Z,99936.19
2022-10-18T17:32:20.073Z,99935.88
2022-10-18T17:34:50.883Z,99941.41
2022-10-18T17:37:20.191Z,99935.91
2022-10-18T17:39:49.291Z,99934.72
2022-10-18T17:42:19.659Z,99931.59
2022-10-18T17:44:48.448Z,99937.13
2022-10-18T17:47:17.232Z,99934.19
2022-10-18T17:49:46.706Z,99929.88
2022-10-18T17:52:17.657Z,99942.44
2022-10-18T17:54:48.383Z,99943.25
2022-10-18T17:57:18.275Z,99939.84
2022-10-18T17:59:49.107Z,99943.94
2022-10-18T18:02:18.174Z,99945.00
2022-10-18T18:04:47.918Z,99940.66
2022-10-18T18:07:18.739Z,99945.25
2022-10-18T18:09:48.392Z,99943.94
2022-10-18T18:12:18.048Z,99945.09
2022-10-18T18:14:49.708Z,99940.28
2022-10-18T18:17:28.668Z,99942.97
2022-10-18T18:20:04.017Z,99939.72
2022-10-18T18:22:40.455Z,99938.91
2022-10-18T18:25:12.367Z,99939.72
2022-10-18T18:27:41.773Z,99933.16
2022-10-18T18:30:11.838Z,99939.84
2022-10-18T18:32:45.134Z,99938.69
2022-10-18T18:35:14.350Z,99934.91
2022-10-18T18:37:44.440Z,99951.09
2022-10-18T18:40:13.486Z,99951.09
2022-10-18T18:42:42.418Z,99941.13
2022-10-18T18:45:11.252Z,99948.63
2022-10-18T18:47:40.712Z,99952.66
2022-10-18T18:50:10.307Z,99955.09
2022-10-18T18:52:38.911Z,99959.44
2022-10-18T18:55:10.293Z,99958.38
2022-10-18T18:57:39.360Z,99949.69
2022-10-18T19:00:10.614Z,99945.13
2022-10-18T19:02:39.410Z,99939.97
2022-10-18T19:05:09.871Z,99938.91
2022-10-18T19:07:39.615Z,99941.25
2022-10-18T19:10:10.720Z,99938.34
2022-10-18T19:12:40.455Z,99941.50
2022-10-18T19:15:10.492Z,99940.69
2022-10-18T19:17:39.853Z,99948.63
2022-10-18T19:20:12.418Z,99945.59
2022-10-18T19:22:42.921Z,99956.13
2022-10-18T19:25:13.274Z,99958.81
2022-10-18T19:27:41.970Z,99954.25
2022-10-18T19:30:12.974Z,99963.41
2022-10-18T19:32:41.629Z,99951.81
2022-10-18T19:35:10.863Z,99963.84
2022-10-18T19:37:40.921Z,99963.53
2022-10-18T19:40:12.418Z,99954.03
2022-10-18T19:42:41.049Z,99961.16
2022-10-18T19:45:10.603Z,99964.22
2022-10-18T19:47:41.263Z,99961.28
2022-10-18T19:50:10.426Z,99963.03
2022-10-18T19:52:39.000Z,99965.97
2022-10-18T19:55:09.069Z,99971.81
2022-10-18T19:57:39.009Z,99963.63
2022-10-18T20:00:10.585Z,99974.41
2022-10-18T20:02:42.280Z,99974.03
2022-10-18T20:05:11.843Z,99984.34
2022-10-18T20:07:41.379Z,99981.66
2022-10-18T20:10:10.605Z,99981.03
2022-10-18T20:12:40.716Z,99980.91
2022-10-18T20:15:11.031Z,99979.75
2022-10-18T20:17:39.811Z,99971.06
2022-10-18T20:20:10.228Z,99974.00
2022-10-18T20:22:38.841Z,99969.91
2022-10-18T20:25:07.902Z,99973.53
2022-10-18T20:27:36.594Z,99976.22
2022-10-18T20:30:10.455Z,99970.69
2022-10-18T20:32:40.011Z,99977.72
2022-10-18T20:35:09.613Z,99968.34
2022-10-18T20:37:38.272Z,99975.22
2022-10-18T20:40:08.177Z,99973.94
2022-10-18T20:42:36.782Z,99965.03
2022-10-18T20:45:08.672Z,99969.47
2022-10-18T20:47:37.742Z,99971.97
2022-10-18T20:50:07.815Z,99964.91
2022-10-18T20:52:36.463Z,99963.75
2022-10-18T20:55:06.512Z,99964.19
2022-10-18T20:57:36.560Z,99970.03
2022-10-18T21:00:11.674Z,99977.84
2022-10-18T21:02:40.377Z,99980.53
2022-10-18T21:05:10.004Z,99963.69
2022-10-18T21:07:38.615Z,99968.84
2022-10-18T21:10:08.563Z,99972.13
2022-10-18T21:12:37.486Z,99974.38
2022-10-18T21:15:10.087Z,99967.50
2022-10-18T21:17:38.839Z,99963.75
2022-10-18T21:20:09.924Z,99966.31
2022-10-18T21:22:38.606Z,99971.59
2022-10-18T21:25:10.326Z,99960.44
2022-10-18T21:27:39.586Z,99958.94
2022-10-18T21:32:40.838Z,99971.34
2022-10-18T21:35:10.758Z,99961.63
2022-10-18T21:37:39.334Z,99969.25
2022-10-18T21:40:09.864Z,99963.66
2022-10-18T21:42:38.560Z,99964.47
2022-10-18T21:45:10.679Z,99960.72
2022-10-18T21:47:39.356Z,99963.66
2022-10-18T21:50:09.152Z,99961.78
2022-10-18T21:52:38.208Z,99966.78
2022-10-18T21:55:08.263Z,99971.47
2022-10-18T21:57:37.599Z,99976.41
2022-10-18T22:00:09.985Z,99973.25
2022-10-18T22:02:38.497Z,99975.94
2022-10-18T22:05:09.779Z,99973.25
2022-10-18T22:07:40.102Z,99979.00
2022-10-18T22:10:09.841Z,99977.03
2022-10-18T22:12:38.456Z,99971.56
2022-10-18T22:15:10.009Z,99975.44
2022-10-18T22:17:38.705Z,99964.41
2022-10-18T22:20:09.050Z,99953.53
2022-10-18T22:22:37.650Z,99950.97
2022-10-18T22:25:07.809Z,99956.50
2022-10-18T22:27:36.727Z,99945.47
2022-10-18T22:30:06.664Z,99957.44
2022-10-18T22:32:36.659Z,99954.00
2022-10-18T22:35:06.269Z,99955.19
2022-10-18T22:37:35.079Z,99959.06
2022-10-18T22:40:04.175Z,99959.41
2022-10-18T22:42:35.775Z,99961.84
2022-10-18T22:45:04.910Z,99964.09
2022-10-18T22:47:35.951Z,99962.47
2022-10-18T22:50:05.341Z,99965.97
2022-10-18T22:52:34.393Z,99956.84
2022-10-18T22:55:03.219Z,99958.22
2022-10-18T22:57:31.838Z,99952.84
2022-10-18T23:00:00.497Z,99950.75
2022-10-18T23:02:29.166Z,99957.53
2022-10-18T23:04:59.187Z,99948.31
2022-10-18T23:07:27.788Z,99954.50
2022-10-18T23:09:56.429Z,99957.66
2022-10-18T23:12:25.108Z,99947.94
2022-10-18T23:14:53.821Z,99950.88
2022-10-18T23:17:22.417Z,99956.47
2022-10-18T23:19:51.035Z,99959.66
2022-10-18T23:22:21.426Z,99956.38
2022-10-18T23:24:50.046Z,99960.09
2022-10-18T23:27:18.744Z,99960.09
2022-10-18T23:29:47.356Z,99961.66
2022-10-18T23:32:16.080Z,99964.34
2022-10-18T23:34:44.652Z,99956.25
2022-10-18T23:37:13.273Z,99960.00
2022-10-18T23:39:43.216Z,99962.91
2022-10-18T23:42:11.817Z,99954.00
2022-10-18T23:44:40.376Z,99956.72
2022-10-18T23:47:09.091Z,99961.75
2022-10-18T23:49:37.736Z,99961.97
2022-10-18T23:52:06.687Z,99963.28
2022-10-18T23:54:35.539Z,99963.97
2022-10-18T23:57:05.762Z,99965.25
2022-10-18T23:59:34.376Z,99969.47
